sensor_id;sensor_type;location;lat;lon;timestamp;pressure;altitude;pressure_sealevel;temperature;humidity
22647;BME280;11490;42.726;23.268;2023-05-07T00:01:12;95454.28;;;11.06;95.94
22647;BME280;11490;42.726;23.268;2023-05-07T00:03:37;95456.50;;;10.98;96.98
22647;BME280;11490;42.726;23.268;2023-05-07T00:06:03;95447.81;;;10.56;98.77
22647;BME280;11490;42.726;23.268;2023-05-07T00:08:28;95459.06;;;10.81;99.74
22647;BME280;11490;42.726;23.268;2023-05-07T00:10:54;95446.31;;;10.36;100.00
22647;BME280;11490;42.726;23.268;2023-05-07T00:13:19;95449.19;;;10.70;100.00
22647;BME280;11490;42.726;23.268;2023-05-07T00:15:45;95453.16;;;10.79;100.00
22647;BME280;11490;42.726;23.268;2023-05-07T00:18:10;95455.13;;;10.84;99.97
22647;BME280;11490;42.726;23.268;2023-05-07T00:20:35;95449.06;;;11.11;98.32
22647;BME280;11490;42.726;23.268;2023-05-07T00:23:01;95441.72;;;11.18;96.50
22647;BME280;11490;42.726;23.268;2023-05-07T00:25:26;95433.34;;;11.27;94.66
22647;BME280;11490;42.726;23.268;2023-05-07T00:27:51;95449.84;;;11.24;95.78
22647;BME280;11490;42.726;23.268;2023-05-07T00:30:17;95438.50;;;10.93;97.86
22647;BME280;11490;42.726;23.268;2023-05-07T00:32:42;95443.81;;;11.16;96.59
22647;BME280;11490;42.726;23.268;2023-05-07T00:35:10;95448.69;;;11.19;94.92
22647;BME280;11490;42.726;23.268;2023-05-07T00:37:36;95455.16;;;11.24;94.23
22647;BME280;11490;42.726;23.268;2023-05-07T00:40:01;95457.75;;;11.18;93.37
22647;BME280;11490;42.726;23.268;2023-05-07T00:42:30;95442.69;;;11.12;92.79
22647;BME280;11490;42.726;23.268;2023-05-07T00:44:57;95447.94;;;10.72;95.72
22647;BME280;11490;42.726;23.268;2023-05-07T00:47:23;95464.25;;;10.29;100.00
22647;BME280;11490;42.726;23.268;2023-05-07T00:49:49;95451.50;;;10.55;99.97
22647;BME280;11490;42.726;23.268;2023-05-07T00:52:16;95443.84;;;10.70;99.55
22647;BME280;11490;42.726;23.268;2023-05-07T00:54:42;95456.50;;;10.98;97.37
22647;BME280;11490;42.726;23.268;2023-05-07T00:57:09;95453.72;;;10.93;95.79
22647;BME280;11490;42.726;23.268;2023-05-07T00:59:36;95455.00;;;10.90;97.11
22647;BME280;11490;42.726;23.268;2023-05-07T01:02:01;95449.28;;;11.10;95.89
22647;BME280;11490;42.726;23.268;2023-05-07T01:04:27;95443.75;;;10.76;98.02
22647;BME280;11490;42.726;23.268;2023-05-07T01:06:54;95452.00;;;10.75;97.99
22647;BME280;11490;42.726;23.268;2023-05-07T01:09:22;95450.81;;;10.94;98.05
22647;BME280;11490;42.726;23.268;2023-05-07T01:11:49;95454.88;;;10.97;96.12
22647;BME280;11490;42.726;23.268;2023-05-07T01:14:16;95452.69;;;10.82;96.70
22647;BME280;11490;42.726;23.268;2023-05-07T01:16:41;95458.03;;;10.59;97.24
22647;BME280;11490;42.726;23.268;2023-05-07T01:19:08;95445.38;;;10.54;99.22
22647;BME280;11490;42.726;23.268;2023-05-07T01:21:37;95458.84;;;10.59;99.06
22647;BME280;11490;42.726;23.268;2023-05-07T01:24:04;95461.16;;;10.56;98.48
22647;BME280;11490;42.726;23.268;2023-05-07T01:26:30;95457.88;;;10.54;98.32
22647;BME280;11490;42.726;23.268;2023-05-07T01:28:55;95459.63;;;10.36;100.00
22647;BME280;11490;42.726;23.268;2023-05-07T01:31:22;95466.72;;;10.66;97.70
22647;BME280;11490;42.726;23.268;2023-05-07T01:33:49;95460.56;;;10.77;96.52
22647;BME280;11490;42.726;23.268;2023-05-07T01:36:17;95455.13;;;10.60;97.14
22647;BME280;11490;42.726;23.268;2023-05-07T01:38:43;95451.31;;;10.68;97.00
22647;BME280;11490;42.726;23.268;2023-05-07T01:41:09;95434.47;;;10.44;97.66
22647;BME280;11490;42.726;23.268;2023-05-07T01:43:35;95447.09;;;10.49;97.44
22647;BME280;11490;42.726;23.268;2023-05-07T01:46:02;95433.78;;;10.60;95.11
22647;BME280;11490;42.726;23.268;2023-05-07T01:48:28;95445.59;;;10.64;94.35
22647;BME280;11490;42.726;23.268;2023-05-07T01:50:54;95439.00;;;10.67;94.10
22647;BME280;11490;42.726;23.268;2023-05-07T01:53:20;95447.13;;;10.72;93.38
22647;BME280;11490;42.726;23.268;2023-05-07T01:55:45;95446.88;;;10.85;91.79
22647;BME280;11490;42.726;23.268;2023-05-07T01:58:11;95444.78;;;10.87;91.28
22647;BME280;11490;42.726;23.268;2023-05-07T02:00:36;95441.09;;;10.65;91.24
22647;BME280;11490;42.726;23.268;2023-05-07T02:03:01;95434.25;;;10.57;92.04
22647;BME280;11490;42.726;23.268;2023-05-07T02:05:27;95443.50;;;10.31;96.14
22647;BME280;11490;42.726;23.268;2023-05-07T02:07:52;95428.44;;;10.37;93.48
22647;BME280;11490;42.726;23.268;2023-05-07T02:10:17;95430.81;;;10.15;96.48
22647;BME280;11490;42.726;23.268;2023-05-07T02:12:43;95424.84;;;10.31;94.83
22647;BME280;11490;42.726;23.268;2023-05-07T02:15:08;95425.44;;;10.57;94.22
22647;BME280;11490;42.726;23.268;2023-05-07T02:17:34;95431.56;;;10.46;96.10
22647;BME280;11490;42.726;23.268;2023-05-07T02:20:00;95427.66;;;10.60;93.63
22647;BME280;11490;42.726;23.268;2023-05-07T02:22:26;95434.53;;;10.14;95.23
22647;BME280;11490;42.726;23.268;2023-05-07T02:24:51;95417.66;;;10.20;95.71
22647;BME280;11490;42.726;23.268;2023-05-07T02:27:16;95422.69;;;10.10;95.34
22647;BME280;11490;42.726;23.268;2023-05-07T02:29:42;95416.31;;;10.11;95.77
22647;BME280;11490;42.726;23.268;2023-05-07T02:32:07;95424.75;;;10.08;95.15
22647;BME280;11490;42.726;23.268;2023-05-07T02:34:32;95427.72;;;10.30;93.80
22647;BME280;11490;42.726;23.268;2023-05-07T02:36:58;95430.63;;;10.28;93.36
22647;BME280;11490;42.726;23.268;2023-05-07T02:39:23;95429.28;;;10.08;95.87
22647;BME280;11490;42.726;23.268;2023-05-07T02:41:48;95436.31;;;10.20;94.47
22647;BME280;11490;42.726;23.268;2023-05-07T02:44:14;95430.69;;;10.10;95.83
22647;BME280;11490;42.726;23.268;2023-05-07T02:46:39;95431.47;;;10.29;94.06
22647;BME280;11490;42.726;23.268;2023-05-07T02:49:05;95427.75;;;9.88;95.44
22647;BME280;11490;42.726;23.268;2023-05-07T02:51:31;95424.97;;;9.95;97.70
22647;BME280;11490;42.726;23.268;2023-05-07T02:53:56;95434.09;;;10.17;95.01
22647;BME280;11490;42.726;23.268;2023-05-07T02:56:22;95434.38;;;9.97;95.54
22647;BME280;11490;42.726;23.268;2023-05-07T02:58:47;95431.00;;;10.02;95.23
22647;BME280;11490;42.726;23.268;2023-05-07T03:01:12;95431.81;;;9.91;95.97
22647;BME280;11490;42.726;23.268;2023-05-07T03:03:39;95443.19;;;9.98;94.96
22647;BME280;11490;42.726;23.268;2023-05-07T03:06:05;95450.25;;;10.04;95.09
22647;BME280;11490;42.726;23.268;2023-05-07T03:08:31;95438.19;;;9.90;94.84
22647;BME280;11490;42.726;23.268;2023-05-07T03:10:57;95443.31;;;10.03;94.51
22647;BME280;11490;42.726;23.268;2023-05-07T03:13:22;95441.81;;;9.65;96.36
22647;BME280;11490;42.726;23.268;2023-05-07T03:15:48;95436.31;;;9.60;98.30
22647;BME280;11490;42.726;23.268;2023-05-07T03:18:13;95440.69;;;9.85;96.41
22647;BME280;11490;42.726;23.268;2023-05-07T03:20:39;95443.81;;;9.82;96.36
22647;BME280;11490;42.726;23.268;2023-05-07T03:23:05;95449.88;;;9.89;95.88
22647;BME280;11490;42.726;23.268;2023-05-07T03:25:31;95456.72;;;9.96;94.71
22647;BME280;11490;42.726;23.268;2023-05-07T03:27:56;95457.38;;;9.92;95.19
22647;BME280;11490;42.726;23.268;2023-05-07T03:30:22;95452.69;;;9.76;95.75
22647;BME280;11490;42.726;23.268;2023-05-07T03:32:47;95455.63;;;9.74;97.19
22647;BME280;11490;42.726;23.268;2023-05-07T03:35:13;95459.75;;;9.70;99.12
22647;BME280;11490;42.726;23.268;2023-05-07T03:37:38;95465.69;;;9.84;97.37
22647;BME280;11490;42.726;23.268;2023-05-07T03:40:05;95468.19;;;9.97;96.30
22647;BME280;11490;42.726;23.268;2023-05-07T03:42:30;95458.47;;;10.02;95.56
22647;BME280;11490;42.726;23.268;2023-05-07T03:44:56;95455.84;;;10.14;94.63
22647;BME280;11490;42.726;23.268;2023-05-07T03:47:21;95461.50;;;10.06;95.47
22647;BME280;11490;42.726;23.268;2023-05-07T03:49:47;95463.44;;;9.99;96.15
22647;BME280;11490;42.726;23.268;2023-05-07T03:52:14;95470.50;;;9.93;98.95
22647;BME280;11490;42.726;23.268;2023-05-07T03:54:39;95470.41;;;10.00;98.34
22647;BME280;11490;42.726;23.268;2023-05-07T03:57:05;95475.06;;;10.16;97.80
22647;BME280;11490;42.726;23.268;2023-05-07T03:59:30;95478.50;;;10.35;96.74
22647;BME280;11490;42.726;23.268;2023-05-07T04:01:55;95480.03;;;10.43;96.13
22647;BME280;11490;42.726;23.268;2023-05-07T04:04:21;95480.63;;;10.45;96.46
22647;BME280;11490;42.726;23.268;2023-05-07T04:06:46;95486.63;;;10.28;96.89
22647;BME280;11490;42.726;23.268;2023-05-07T04:09:12;95483.63;;;10.36;97.69
22647;BME280;11490;42.726;23.268;2023-05-07T04:11:37;95496.03;;;10.43;97.23
22647;BME280;11490;42.726;23.268;2023-05-07T04:14:05;95506.03;;;10.59;96.81
22647;BME280;11490;42.726;23.268;2023-05-07T04:16:30;95510.56;;;10.70;96.59
22647;BME280;11490;42.726;23.268;2023-05-07T04:18:55;95508.59;;;10.77;96.32
22647;BME280;11490;42.726;23.268;2023-05-07T04:21:21;95502.34;;;10.83;96.29
22647;BME280;11490;42.726;23.268;2023-05-07T04:23:47;95506.50;;;10.79;97.29
22647;BME280;11490;42.726;23.268;2023-05-07T04:26:13;95505.22;;;10.93;96.37
22647;BME280;11490;42.726;23.268;2023-05-07T04:28:39;95524.75;;;11.05;96.29
22647;BME280;11490;42.726;23.268;2023-05-07T04:31:05;95522.28;;;11.15;96.36
22647;BME280;11490;42.726;23.268;2023-05-07T04:33:31;95526.09;;;11.08;96.75
22647;BME280;11490;42.726;23.268;2023-05-07T04:35:57;95527.16;;;11.30;95.61
22647;BME280;11490;42.726;23.268;2023-05-07T04:38:22;95521.56;;;11.32;95.64
22647;BME280;11490;42.726;23.268;2023-05-07T04:40:48;95533.16;;;11.49;95.37
22647;BME280;11490;42.726;23.268;2023-05-07T04:43:14;95527.81;;;11.49;94.78
22647;BME280;11490;42.726;23.268;2023-05-07T04:45:39;95528.03;;;11.59;95.67
22647;BME280;11490;42.726;23.268;2023-05-07T04:48:06;95530.81;;;11.76;94.95
22647;BME280;11490;42.726;23.268;2023-05-07T04:50:32;95526.81;;;11.90;93.97
22647;BME280;11490;42.726;23.268;2023-05-07T04:52:58;95531.44;;;11.94;93.69
22647;BME280;11490;42.726;23.268;2023-05-07T04:55:23;95514.94;;;11.98;94.11
22647;BME280;11490;42.726;23.268;2023-05-07T04:57:48;95526.28;;;12.05;93.40
22647;BME280;11490;42.726;23.268;2023-05-07T05:00:15;95526.72;;;12.13;93.01
22647;BME280;11490;42.726;23.268;2023-05-07T05:02:41;95518.16;;;12.28;92.01
22647;BME280;11490;42.726;23.268;2023-05-07T05:05:07;95526.47;;;12.43;91.80
22647;BME280;11490;42.726;23.268;2023-05-07T05:07:32;95516.16;;;12.35;91.96
22647;BME280;11490;42.726;23.268;2023-05-07T05:09:58;95521.69;;;12.45;92.41
22647;BME280;11490;42.726;23.268;2023-05-07T05:12:23;95533.88;;;12.69;91.36
22647;BME280;11490;42.726;23.268;2023-05-07T05:14:49;95528.03;;;12.72;91.51
22647;BME280;11490;42.726;23.268;2023-05-07T05:17:14;95527.38;;;12.82;91.70
22647;BME280;11490;42.726;23.268;2023-05-07T05:19:40;95527.38;;;12.99;90.62
22647;BME280;11490;42.726;23.268;2023-05-07T05:22:05;95512.75;;;13.06;90.11
22647;BME280;11490;42.726;23.268;2023-05-07T05:24:31;95524.31;;;13.24;89.70
22647;BME280;11490;42.726;23.268;2023-05-07T05:26:56;95516.50;;;13.22;90.34
22647;BME280;11490;42.726;23.268;2023-05-07T05:29:22;95520.72;;;13.18;89.83
22647;BME280;11490;42.726;23.268;2023-05-07T05:31:47;95518.25;;;13.33;88.47
22647;BME280;11490;42.726;23.268;2023-05-07T05:34:13;95518.13;;;13.23;90.06
22647;BME280;11490;42.726;23.268;2023-05-07T05:36:38;95520.75;;;13.40;89.98
22647;BME280;11490;42.726;23.268;2023-05-07T05:39:04;95516.91;;;13.53;90.25
22647;BME280;11490;42.726;23.268;2023-05-07T05:41:29;95530.00;;;13.71;88.03
22647;BME280;11490;42.726;23.268;2023-05-07T05:43:55;95528.50;;;13.80;87.61
22647;BME280;11490;42.726;23.268;2023-05-07T05:46:21;95516.91;;;13.96;87.71
22647;BME280;11490;42.726;23.268;2023-05-07T05:48:46;95523.00;;;14.13;86.50
22647;BME280;11490;42.726;23.268;2023-05-07T05:51:11;95530.34;;;14.45;86.28
22647;BME280;11490;42.726;23.268;2023-05-07T05:53:37;95522.72;;;14.63;85.88
22647;BME280;11490;42.726;23.268;2023-05-07T05:56:02;95523.78;;;14.94;85.67
22647;BME280;11490;42.726;23.268;2023-05-07T05:58:28;95531.09;;;14.99;85.50
22647;BME280;11490;42.726;23.268;2023-05-07T06:00:53;95529.09;;;15.21;84.11
22647;BME280;11490;42.726;23.268;2023-05-07T06:03:19;95528.69;;;15.45;82.84
22647;BME280;11490;42.726;23.268;2023-05-07T06:05:44;95517.06;;;15.34;82.75
22647;BME280;11490;42.726;23.268;2023-05-07T06:08:10;95524.13;;;15.45;83.16
22647;BME280;11490;42.726;23.268;2023-05-07T06:10:38;95521.88;;;15.27;84.77
22647;BME280;11490;42.726;23.268;2023-05-07T06:13:04;95525.72;;;14.99;84.69
22647;BME280;11490;42.726;23.268;2023-05-07T06:15:29;95529.09;;;14.31;88.23
22647;BME280;11490;42.726;23.268;2023-05-07T06:17:54;95522.09;;;14.30;90.78
22647;BME280;11490;42.726;23.268;2023-05-07T06:20:22;95526.06;;;15.13;87.31
22647;BME280;11490;42.726;23.268;2023-05-07T06:22:48;95523.81;;;15.36;84.99
22647;BME280;11490;42.726;23.268;2023-05-07T06:25:14;95530.50;;;15.71;84.73
22647;BME280;11490;42.726;23.268;2023-05-07T06:27:39;95514.88;;;15.73;82.39
22647;BME280;11490;42.726;23.268;2023-05-07T06:30:05;95514.66;;;15.79;83.67
22647;BME280;11490;42.726;23.268;2023-05-07T06:32:31;95515.81;;;15.99;83.67
22647;BME280;11490;42.726;23.268;2023-05-07T06:34:56;95504.06;;;16.30;81.78
22647;BME280;11490;42.726;23.268;2023-05-07T06:37:22;95507.88;;;16.54;79.48
22647;BME280;11490;42.726;23.268;2023-05-07T06:39:47;95511.41;;;16.65;80.08
22647;BME280;11490;42.726;23.268;2023-05-07T06:42:13;95500.13;;;15.81;79.70
22647;BME280;11490;42.726;23.268;2023-05-07T06:44:38;95499.22;;;16.37;80.33
22647;BME280;11490;42.726;23.268;2023-05-07T06:47:03;95495.47;;;16.59;78.84
22647;BME280;11490;42.726;23.268;2023-05-07T06:49:30;95500.75;;;16.03;79.44
22647;BME280;11490;42.726;23.268;2023-05-07T06:51:56;95492.25;;;16.46;78.53
22647;BME280;11490;42.726;23.268;2023-05-07T06:54:22;95485.56;;;16.89;78.24
22647;BME280;11490;42.726;23.268;2023-05-07T06:56:48;95492.25;;;17.22;76.85
22647;BME280;11490;42.726;23.268;2023-05-07T06:59:13;95498.22;;;17.14;76.12
22647;BME280;11490;42.726;23.268;2023-05-07T07:01:38;95504.94;;;17.12;75.86
22647;BME280;11490;42.726;23.268;2023-05-07T07:04:04;95493.06;;;17.33;77.39
22647;BME280;11490;42.726;23.268;2023-05-07T07:06:29;95494.66;;;17.39;75.44
22647;BME280;11490;42.726;23.268;2023-05-07T07:08:57;95484.09;;;17.53;74.29
22647;BME280;11490;42.726;23.268;2023-05-07T07:11:22;95497.19;;;18.00;74.74
22647;BME280;11490;42.726;23.268;2023-05-07T07:13:48;95493.16;;;17.92;72.66
22647;BME280;11490;42.726;23.268;2023-05-07T07:16:13;95493.38;;;18.06;72.34
22647;BME280;11490;42.726;23.268;2023-05-07T07:18:38;95486.88;;;18.07;73.44
22647;BME280;11490;42.726;23.268;2023-05-07T07:21:04;95489.91;;;18.44;73.61
22647;BME280;11490;42.726;23.268;2023-05-07T07:23:30;95490.72;;;18.50;71.79
22647;BME280;11490;42.726;23.268;2023-05-07T07:25:55;95488.06;;;18.40;71.11
22647;BME280;11490;42.726;23.268;2023-05-07T07:28:21;95488.91;;;18.74;70.50
22647;BME280;11490;42.726;23.268;2023-05-07T07:30:47;95492.31;;;18.90;69.31
22647;BME280;11490;42.726;23.268;2023-05-07T07:33:12;95497.97;;;18.94;67.69
22647;BME280;11490;42.726;23.268;2023-05-07T07:35:37;95493.03;;;19.01;70.91
22647;BME280;11490;42.726;23.268;2023-05-07T07:38:03;95493.91;;;19.25;70.46
22647;BME280;11490;42.726;23.268;2023-05-07T07:40:28;95492.16;;;19.10;66.93
22647;BME280;11490;42.726;23.268;2023-05-07T07:42:54;95499.25;;;19.30;69.75
22647;BME280;11490;42.726;23.268;2023-05-07T07:45:20;95508.50;;;19.58;68.76
22647;BME280;11490;42.726;23.268;2023-05-07T07:47:45;95510.09;;;19.83;66.69
22647;BME280;11490;42.726;23.268;2023-05-07T07:50:29;95511.16;;;19.87;66.83
22647;BME280;11490;42.726;23.268;2023-05-07T07:52:54;95511.03;;;19.97;64.75
22647;BME280;11490;42.726;23.268;2023-05-07T07:55:20;95501.22;;;20.01;66.02
22647;BME280;11490;42.726;23.268;2023-05-07T07:57:47;95503.19;;;20.19;65.62
22647;BME280;11490;42.726;23.268;2023-05-07T08:00:13;95501.19;;;20.25;65.77
22647;BME280;11490;42.726;23.268;2023-05-07T08:02:39;95492.53;;;20.47;63.76
22647;BME280;11490;42.726;23.268;2023-05-07T08:05:05;95496.03;;;20.47;62.86
22647;BME280;11490;42.726;23.268;2023-05-07T08:07:30;95492.97;;;20.54;62.39
22647;BME280;11490;42.726;23.268;2023-05-07T08:09:56;95501.84;;;20.59;61.18
22647;BME280;11490;42.726;23.268;2023-05-07T08:12:21;95495.22;;;20.84;65.03
22647;BME280;11490;42.726;23.268;2023-05-07T08:14:47;95500.00;;;20.55;64.65
22647;BME280;11490;42.726;23.268;2023-05-07T08:17:12;95495.44;;;20.69;60.90
22647;BME280;11490;42.726;23.268;2023-05-07T08:19:41;95489.97;;;20.55;60.63
22647;BME280;11490;42.726;23.268;2023-05-07T08:22:06;95490.31;;;20.06;64.18
22647;BME280;11490;42.726;23.268;2023-05-07T08:24:31;95489.63;;;20.94;62.30
22647;BME280;11490;42.726;23.268;2023-05-07T08:26:58;95481.00;;;21.25;61.62
22647;BME280;11490;42.726;23.268;2023-05-07T08:29:24;95479.53;;;21.32;61.31
22647;BME280;11490;42.726;23.268;2023-05-07T08:31:49;95476.13;;;21.54;60.96
22647;BME280;11490;42.726;23.268;2023-05-07T08:34:14;95484.09;;;21.92;61.60
22647;BME280;11490;42.726;23.268;2023-05-07T08:36:40;95471.03;;;21.94;58.13
22647;BME280;11490;42.726;23.268;2023-05-07T08:39:07;95472.34;;;22.10;61.14
22647;BME280;11490;42.726;23.268;2023-05-07T08:41:32;95469.03;;;22.13;60.48
22647;BME280;11490;42.726;23.268;2023-05-07T08:43:59;95482.66;;;22.49;58.67
22647;BME280;11490;42.726;23.268;2023-05-07T08:46:25;95461.94;;;22.61;56.72
22647;BME280;11490;42.726;23.268;2023-05-07T08:48:51;95471.97;;;22.52;55.67
22647;BME280;11490;42.726;23.268;2023-05-07T08:51:19;95469.50;;;22.64;56.67
22647;BME280;11490;42.726;23.268;2023-05-07T08:53:46;95466.41;;;22.08;56.61
22647;BME280;11490;42.726;23.268;2023-05-07T08:56:14;95471.19;;;22.38;55.07
22647;BME280;11490;42.726;23.268;2023-05-07T08:58:40;95462.31;;;21.97;55.22
22647;BME280;11490;42.726;23.268;2023-05-07T09:01:12;95466.41;;;20.88;54.29
22647;BME280;11490;42.726;23.268;2023-05-07T09:03:39;95463.91;;;21.98;52.48
22647;BME280;11490;42.726;23.268;2023-05-07T09:06:05;95466.34;;;21.26;54.76
22647;BME280;11490;42.726;23.268;2023-05-07T09:08:32;95451.63;;;22.00;53.91
22647;BME280;11490;42.726;23.268;2023-05-07T09:10:58;95444.50;;;22.04;53.16
22647;BME280;11490;42.726;23.268;2023-05-07T09:13:23;95450.03;;;22.49;53.14
22647;BME280;11490;42.726;23.268;2023-05-07T09:15:48;95445.31;;;22.77;52.28
22647;BME280;11490;42.726;23.268;2023-05-07T09:18:14;95440.50;;;22.74;51.04
22647;BME280;11490;42.726;23.268;2023-05-07T09:20:41;95445.19;;;23.04;51.22
22647;BME280;11490;42.726;23.268;2023-05-07T09:23:07;95447.75;;;23.54;49.57
22647;BME280;11490;42.726;23.268;2023-05-07T09:25:34;95448.84;;;23.92;48.43
22647;BME280;11490;42.726;23.268;2023-05-07T09:28:01;95444.69;;;23.95;50.04
22647;BME280;11490;42.726;23.268;2023-05-07T09:30:32;95438.63;;;24.06;45.19
22647;BME280;11490;42.726;23.268;2023-05-07T09:32:58;95448.56;;;23.32;46.56
22647;BME280;11490;42.726;23.268;2023-05-07T09:35:25;95439.84;;;23.83;48.62
22647;BME280;11490;42.726;23.268;2023-05-07T09:37:53;95436.75;;;24.24;45.91
22647;BME280;11490;42.726;23.268;2023-05-07T09:40:23;95434.84;;;24.33;42.85
22647;BME280;11490;42.726;23.268;2023-05-07T09:42:49;95427.16;;;24.78;44.11
22647;BME280;11490;42.726;23.268;2023-05-07T09:45:16;95424.44;;;24.52;41.26
22647;BME280;11490;42.726;23.268;2023-05-07T09:47:42;95432.94;;;24.51;42.36
22647;BME280;11490;42.726;23.268;2023-05-07T09:50:11;95423.31;;;24.28;41.31
22647;BME280;11490;42.726;23.268;2023-05-07T09:52:39;95434.53;;;24.86;40.42
22647;BME280;11490;42.726;23.268;2023-05-07T09:55:07;95422.19;;;23.72;44.15
22647;BME280;11490;42.726;23.268;2023-05-07T09:57:32;95421.22;;;24.76;41.90
22647;BME280;11490;42.726;23.268;2023-05-07T09:59:59;95420.13;;;24.77;39.52
22647;BME280;11490;42.726;23.268;2023-05-07T10:02:28;95418.94;;;23.70;41.51
22647;BME280;11490;42.726;23.268;2023-05-07T10:04:56;95410.16;;;24.47;41.26
22647;BME280;11490;42.726;23.268;2023-05-07T10:07:22;95417.16;;;24.13;39.45
22647;BME280;11490;42.726;23.268;2023-05-07T10:09:49;95407.75;;;24.37;41.36
22647;BME280;11490;42.726;23.268;2023-05-07T10:12:16;95413.22;;;24.54;39.72
22647;BME280;11490;42.726;23.268;2023-05-07T10:14:43;95419.72;;;24.18;40.65
22647;BME280;11490;42.726;23.268;2023-05-07T10:17:11;95402.78;;;24.22;40.68
22647;BME280;11490;42.726;23.268;2023-05-07T10:19:38;95395.59;;;23.38;41.17
22647;BME280;11490;42.726;23.268;2023-05-07T10:22:05;95399.25;;;23.64;42.53
22647;BME280;11490;42.726;23.268;2023-05-07T10:24:33;95385.03;;;23.76;41.10
22647;BME280;11490;42.726;23.268;2023-05-07T10:27:05;95374.03;;;24.07;42.73
22647;BME280;11490;42.726;23.268;2023-05-07T10:34:56;95374.19;;;24.79;39.25
22647;BME280;11490;42.726;23.268;2023-05-07T10:37:24;95383.84;;;24.85;38.50
22647;BME280;11490;42.726;23.268;2023-05-07T10:39:51;95370.34;;;24.98;40.31
22647;BME280;11490;42.726;23.268;2023-05-07T10:42:16;95375.34;;;25.42;39.58
22647;BME280;11490;42.726;23.268;2023-05-07T10:44:42;95366.44;;;25.92;37.85
22647;BME280;11490;42.726;23.268;2023-05-07T10:52:31;95361.63;;;25.13;38.29
22647;BME280;11490;42.726;23.268;2023-05-07T10:57:39;95366.53;;;25.75;33.97
22647;BME280;11490;42.726;23.268;2023-05-07T11:05:31;95366.13;;;25.09;35.02
22647;BME280;11490;42.726;23.268;2023-05-07T11:07:59;95350.44;;;25.44;35.64
22647;BME280;11490;42.726;23.268;2023-05-07T11:13:13;95355.25;;;25.85;36.72
22647;BME280;11490;42.726;23.268;2023-05-07T11:15:46;95359.38;;;25.91;34.40
22647;BME280;11490;42.726;23.268;2023-05-07T11:18:16;95354.75;;;26.54;34.88
22647;BME280;11490;42.726;23.268;2023-05-07T11:26:10;95344.09;;;26.73;32.21
22647;BME280;11490;42.726;23.268;2023-05-07T11:28:38;95342.22;;;26.53;32.75
22647;BME280;11490;42.726;23.268;2023-05-07T11:31:03;95338.88;;;26.26;32.58
22647;BME280;11490;42.726;23.268;2023-05-07T11:33:33;95340.84;;;26.59;32.25
22647;BME280;11490;42.726;23.268;2023-05-07T11:35:59;95339.75;;;26.72;31.28
22647;BME280;11490;42.726;23.268;2023-05-07T11:38:25;95343.53;;;26.05;33.62
22647;BME280;11490;42.726;23.268;2023-05-07T11:40:51;95331.25;;;26.11;35.21
22647;BME280;11490;42.726;23.268;2023-05-07T11:43:17;95328.03;;;25.88;33.02
22647;BME280;11490;42.726;23.268;2023-05-07T11:45:42;95330.59;;;25.55;33.98
22647;BME280;11490;42.726;23.268;2023-05-07T11:48:09;95335.53;;;26.41;34.59
22647;BME280;11490;42.726;23.268;2023-05-07T11:50:35;95325.28;;;26.38;32.81
22647;BME280;11490;42.726;23.268;2023-05-07T11:53:00;95326.56;;;25.91;31.31
22647;BME280;11490;42.726;23.268;2023-05-07T11:55:32;95319.72;;;25.09;34.32
22647;BME280;11490;42.726;23.268;2023-05-07T11:57:57;95315.09;;;25.77;34.89
22647;BME280;11490;42.726;23.268;2023-05-07T12:00:22;95320.13;;;26.16;33.03
22647;BME280;11490;42.726;23.268;2023-05-07T12:02:48;95321.66;;;26.05;33.69
22647;BME280;11490;42.726;23.268;2023-05-07T12:05:13;95305.25;;;25.84;33.75
22647;BME280;11490;42.726;23.268;2023-05-07T12:07:39;95319.50;;;25.90;35.13
22647;BME280;11490;42.726;23.268;2023-05-07T12:10:07;95311.50;;;26.05;36.05
22647;BME280;11490;42.726;23.268;2023-05-07T12:12:38;95301.50;;;25.89;34.59
22647;BME280;11490;42.726;23.268;2023-05-07T12:15:05;95308.31;;;25.83;36.33
22647;BME280;11490;42.726;23.268;2023-05-07T12:17:30;95304.81;;;25.74;33.72
22647;BME280;11490;42.726;23.268;2023-05-07T12:19:56;95302.94;;;25.65;34.17
22647;BME280;11490;42.726;23.268;2023-05-07T12:22:22;95303.63;;;24.17;32.80
22647;BME280;11490;42.726;23.268;2023-05-07T12:24:49;95294.19;;;24.41;33.40
22647;BME280;11490;42.726;23.268;2023-05-07T12:27:15;95291.88;;;24.77;34.69
22647;BME280;11490;42.726;23.268;2023-05-07T12:29:47;95284.81;;;24.85;35.64
22647;BME280;11490;42.726;23.268;2023-05-07T12:32:15;95288.59;;;25.01;36.12
22647;BME280;11490;42.726;23.268;2023-05-07T12:34:41;95289.59;;;24.97;35.04
22647;BME280;11490;42.726;23.268;2023-05-07T12:37:06;95282.06;;;24.85;33.97
22647;BME280;11490;42.726;23.268;2023-05-07T12:39:31;95280.75;;;25.00;36.00
22647;BME280;11490;42.726;23.268;2023-05-07T12:41:59;95281.69;;;25.04;34.53
22647;BME280;11490;42.726;23.268;2023-05-07T12:44:32;95281.06;;;25.07;36.07
22647;BME280;11490;42.726;23.268;2023-05-07T12:46:58;95277.19;;;25.08;35.42
22647;BME280;11490;42.726;23.268;2023-05-07T12:49:26;95274.66;;;24.94;33.89
22647;BME280;11490;42.726;23.268;2023-05-07T12:51:53;95266.03;;;24.83;33.65
22647;BME280;11490;42.726;23.268;2023-05-07T12:54:29;95249.69;;;24.66;35.22
22647;BME280;11490;42.726;23.268;2023-05-07T12:57:06;95252.91;;;24.68;36.06
22647;BME280;11490;42.726;23.268;2023-05-07T12:59:39;95243.63;;;24.61;36.20
22647;BME280;11490;42.726;23.268;2023-05-07T13:02:05;95245.25;;;24.53;34.61
22647;BME280;11490;42.726;23.268;2023-05-07T13:04:31;95253.25;;;24.58;35.53
22647;BME280;11490;42.726;23.268;2023-05-07T13:06:58;95242.97;;;24.55;35.43
22647;BME280;11490;42.726;23.268;2023-05-07T13:09:23;95241.44;;;24.37;35.26
22647;BME280;11490;42.726;23.268;2023-05-07T13:11:48;95245.25;;;24.53;35.65